Time;durP1;ratioP1;P1;durP2;ratioP2;P2;SDS_P1;SDS_P2;PMS_P1;PMS_P2;Temp;Humidity;BMP_temperature;BMP_pressure;BME280_temperature;BME280_humidity;BME280_pressure;Samples;Min_cycle;Max_cycle;Signal;HPM_P1;HPM_P2
2021/06/06 00:01:47;;;;;;;8.13;7.35;;;;;;;18.49;73.52;100989.84;4919353;28;98604;-71
2021/06/06 00:04:16;;;;;;;8.40;7.70;;;;;;;18.34;73.86;100982.78;4918050;28;121107;-69
2021/06/06 00:06:43;;;;;;;8.40;7.60;;;;;;;18.09;74.94;100988.81;4883358;28;100163;-69
2021/06/06 00:09:14;;;;;;;9.00;8.23;;;;;;;18.11;74.75;100992.84;4893960;28;98942;-69
2021/06/06 00:11:52;;;;;;;9.32;8.50;;;;;;;18.28;74.28;100986.75;4901841;28;97939;-71
2021/06/06 00:14:29;;;;;;;8.60;7.90;;;;;;;18.28;73.76;100986.75;4901393;28;98111;-69
2021/06/06 00:16:59;;;;;;;8.90;8.07;;;;;;;18.42;73.01;100989.44;4896564;28;110703;-69
2021/06/06 00:19:25;;;;;;;8.82;8.13;;;;;;;18.21;73.92;100980.09;4899556;28;119384;-69
2021/06/06 00:21:52;;;;;;;9.38;8.68;;;;;;;17.89;75.43;100990.03;4913701;28;112845;-71
2021/06/06 00:24:20;;;;;;;10.07;9.27;;;;;;;17.95;75.06;100988.81;4900768;28;112377;-69
2021/06/06 00:26:46;;;;;;;9.63;8.77;;;;;;;18.02;75.07;100996.59;4882531;28;98557;-70
2021/06/06 00:29:12;;;;;;;9.77;8.75;;;;;;;18.11;74.49;100992.84;4881699;28;125476;-72
2021/06/06 00:31:38;;;;;;;9.93;9.02;;;;;;;18.24;74.01;100980.31;4900800;28;115589;-70
2021/06/06 00:34:05;;;;;;;9.73;8.82;;;;;;;18.22;74.03;100979.78;4881859;28;125549;-71
2021/06/06 00:36:31;;;;;;;9.80;8.90;;;;;;;17.99;74.73;100986.28;4898863;28;129235;-69
2021/06/06 00:38:57;;;;;;;9.85;9.00;;;;;;;17.82;75.60;100989.63;4918349;28;109354;-70
2021/06/06 00:41:24;;;;;;;10.18;9.20;;;;;;;17.80;74.68;100989.13;4900210;28;127950;-70
2021/06/06 00:43:51;;;;;;;10.30;9.43;;;;;;;17.98;74.56;100984.69;4885589;28;106362;-69
2021/06/06 00:46:18;;;;;;;9.70;8.70;;;;;;;17.83;74.84;100989.31;4918380;28;126767;-71
2021/06/06 00:48:44;;;;;;;9.93;8.98;;;;;;;17.65;75.48;100990.22;4918662;28;116647;-69
2021/06/06 00:51:20;;;;;;;9.70;8.80;;;;;;;17.96;74.75;100984.16;4918816;28;127516;-69
2021/06/06 00:54:05;;;;;;;9.95;9.05;;;;;;;18.03;74.65;100984.56;4867760;28;98316;-69
2021/06/06 00:56:31;;;;;;;10.60;8.85;;;;;;;17.91;74.76;100982.34;4883184;28;98808;-69
2021/06/06 00:59:00;;;;;;;9.98;9.07;;;;;;;17.70;75.42;100990.13;4897960;28;129098;-70
2021/06/06 01:01:27;;;;;;;10.50;9.48;;;;;;;17.75;74.77;100979.13;4887217;28;108904;-69
2021/06/06 01:03:57;;;;;;;10.25;9.23;;;;;;;17.55;75.13;100974.84;4880261;28;97914;-70
2021/06/06 01:06:31;;;;;;;10.20;9.40;;;;;;;17.67;74.98;100975.16;4910640;28;116952;-70
2021/06/06 01:08:59;;;;;;;10.50;9.60;;;;;;;17.76;74.59;100983.47;4919203;28;98569;-70
2021/06/06 01:12:11;;;;;;;9.90;9.10;;;;;;;17.40;75.45;100981.38;4900508;28;97901;-70
2021/06/06 01:14:41;;;;;;;10.77;9.87;;;;;;;17.50;75.53;100980.41;4917428;28;97796;-69
2021/06/06 01:17:50;;;;;;;10.82;9.75;;;;;;;17.47;75.68;100970.09;4895377;28;98470;-69
2021/06/06 01:20:38;;;;;;;11.20;10.20;;;;;;;17.02;76.70;100980.72;4898322;28;98892;-69
2021/06/06 01:23:37;;;;;;;11.07;10.07;;;;;;;16.97;77.05;100979.97;4918505;28;97901;-69
2021/06/06 01:26:26;;;;;;;10.88;9.85;;;;;;;17.16;77.21;100983.47;4905943;28;97977;-69
2021/06/06 01:29:27;;;;;;;11.95;10.95;;;;;;;16.95;77.62;100982.19;4852333;28;99133;-70
2021/06/06 01:32:20;;;;;;;11.35;10.27;;;;;;;16.85;77.47;100989.41;4873380;28;110599;-70
2021/06/06 01:34:59;;;;;;;11.45;10.45;;;;;;;16.82;77.10;100983.75;4906344;28;98050;-68
2021/06/06 01:37:26;;;;;;;13.38;12.13;;;;;;;16.76;77.80;100984.94;4889673;28;97834;-69
2021/06/06 01:40:05;;;;;;;14.18;12.88;;;;;;;16.94;77.11;100984.13;4904679;28;98693;-69
2021/06/06 01:42:46;;;;;;;14.25;12.93;;;;;;;17.17;76.63;100985.91;4874701;28;98639;-71
2021/06/06 01:45:16;;;;;;;15.18;13.73;;;;;;;17.05;76.84;100988.25;4888266;28;113703;-69
2021/06/06 01:47:43;;;;;;;14.43;12.95;;;;;;;17.15;76.34;100985.38;4888577;28;98170;-70
2021/06/06 01:50:24;;;;;;;15.25;13.90;;;;;;;16.85;76.90;100980.44;4904136;28;98882;-68
2021/06/06 01:52:50;;;;;;;14.70;13.20;;;;;;;16.71;77.94;100982.28;4903611;28;99745;-69
2021/06/06 01:55:19;;;;;;;14.80;13.40;;;;;;;16.78;77.34;100989.00;4870974;28;108998;-69
2021/06/06 01:57:45;;;;;;;13.65;12.45;;;;;;;16.57;78.33;100996.63;4869558;28;98095;-69
2021/06/06 02:00:17;;;;;;;13.00;11.80;;;;;;;16.84;77.20;100992.44;4900408;28;108305;-69
2021/06/06 02:02:43;;;;;;;13.13;11.83;;;;;;;17.03;76.64;100978.78;4902152;28;99197;-70
2021/06/06 02:05:14;;;;;;;13.45;12.15;;;;;;;17.02;76.58;100982.63;4883837;28;126456;-70
2021/06/06 02:07:42;;;;;;;12.77;11.57;;;;;;;16.81;76.96;100982.13;4885686;28;97975;-69
2021/06/06 02:10:50;;;;;;;13.43;12.23;;;;;;;16.34;78.12;100986.59;4904802;28;112177;-69
2021/06/06 02:13:19;;;;;;;13.25;11.95;;;;;;;16.21;78.65;100996.31;4902916;28;115794;-70
2021/06/06 02:15:45;;;;;;;13.00;11.35;;;;;;;16.52;77.72;100988.53;4901659;28;98208;-69
2021/06/06 02:18:11;;;;;;;13.90;12.57;;;;;;;16.57;76.41;100988.44;4871008;28;105982;-70
2021/06/06 02:20:41;;;;;;;12.93;11.75;;;;;;;16.42;76.41;101005.78;4921842;28;126558;-69
2021/06/06 02:23:07;;;;;;;14.27;12.93;;;;;;;15.92;78.34;101004.56;4908835;28;98505;-70
2021/06/06 02:25:34;;;;;;;15.50;14.00;;;;;;;15.91;78.84;100995.56;4885097;28;98501;-70
2021/06/06 02:28:31;;;;;;;15.30;13.73;;;;;;;16.07;78.92;100993.50;4883384;28;111008;-68
2021/06/06 02:31:21;;;;;;;15.13;13.70;;;;;;;16.09;78.49;101002.16;4874666;28;98338;-68
2021/06/06 02:34:01;;;;;;;18.65;16.73;;;;;;;16.02;79.29;101007.13;4882892;28;115248;-70
2021/06/06 02:36:28;;;;;;;57.45;19.85;;;;;;;15.84;80.23;101008.72;4883204;28;98278;-70
2021/06/06 02:39:28;;;;;;;19.63;17.55;;;;;;;16.10;79.58;101000.25;4903396;28;97975;-70
2021/06/06 02:42:21;;;;;;;22.52;19.48;;;;;;;16.07;79.84;100993.50;4905120;28;98803;-68
2021/06/06 02:45:20;;;;;;;66.25;19.55;;;;;;;15.61;82.20;101001.34;4890247;28;98714;-70
2021/06/06 02:47:46;;;;;;;27.92;19.58;;;;;;;15.79;81.79;101003.31;4903322;28;99009;-70
2021/06/06 02:50:24;;;;;;;39.72;18.95;;;;;;;15.74;82.13;100999.88;4886511;28;124815;-70
2021/06/06 02:53:01;;;;;;;21.17;18.60;;;;;;;16.02;80.72;101001.72;4903509;28;98398;-70
2021/06/06 02:55:34;;;;;;;54.70;19.17;;;;;;;15.53;82.31;101007.41;4872499;28;98573;-68
2021/06/06 02:58:09;;;;;;;48.67;19.05;;;;;;;15.47;82.94;101012.06;4886918;28;97890;-68
2021/06/06 03:00:44;;;;;;;19.13;17.05;;;;;;;15.68;81.87;100999.94;4903981;28;98364;-68
2021/06/06 03:03:14;;;;;;;22.13;17.73;;;;;;;15.71;81.13;100993.09;4887921;28;98364;-70
2021/06/06 03:05:41;;;;;;;29.65;17.63;;;;;;;15.55;81.52;100999.75;4891487;28;114368;-68
2021/06/06 03:08:08;;;;;;;20.77;17.52;;;;;;;15.65;81.08;101002.41;4883778;28;101886;-68
2021/06/06 03:10:36;;;;;;;19.13;16.90;;;;;;;15.81;81.00;101003.88;4868647;28;97972;-70
2021/06/06 03:13:34;;;;;;;20.33;17.90;;;;;;;15.95;80.28;101009.41;4901038;28;98801;-69
2021/06/06 03:16:01;;;;;;;28.95;19.95;;;;;;;15.70;80.82;101010.50;4899927;28;99119;-68
2021/06/06 03:18:30;;;;;;;25.35;20.10;;;;;;;15.54;81.57;101009.81;4883879;28;97903;-69
2021/06/06 03:21:18;;;;;;;21.23;18.70;;;;;;;15.85;80.90;101015.78;4901717;28;98093;-68
2021/06/06 03:23:48;;;;;;;21.58;19.38;;;;;;;16.03;80.55;101003.31;4872776;28;98612;-70
2021/06/06 03:26:14;;;;;;;30.38;21.33;;;;;;;15.75;81.74;101007.72;4885340;28;97973;-68
2021/06/06 03:28:42;;;;;;;21.35;19.15;;;;;;;15.94;81.41;101013.22;4881758;28;126016;-69
2021/06/06 03:31:17;;;;;;;34.38;21.70;;;;;;;15.75;82.05;101020.50;4884260;28;100281;-68
2021/06/06 03:33:43;;;;;;;23.73;19.55;;;;;;;15.65;82.61;101011.38;4876975;28;98263;-67
2021/06/06 03:36:12;;;;;;;60.28;21.70;;;;;;;15.84;81.91;101013.34;4920471;28;98534;-70
2021/06/06 03:38:38;;;;;;;45.38;21.75;;;;;;;15.82;82.43;101012.81;4919920;28;107524;-69
2021/06/06 03:41:05;;;;;;;68.00;21.88;;;;;;;15.69;83.44;101017.84;4919066;28;123408;-68
2021/06/06 03:43:31;;;;;;;38.78;21.13;;;;;;;15.61;83.67;101017.66;4885630;28;109661;-67
2021/06/06 03:45:57;;;;;;;45.15;23.48;;;;;;;15.81;83.02;101014.75;4920434;28;97721;-68
2021/06/06 03:48:23;;;;;;;30.50;21.70;;;;;;;15.80;83.15;101018.56;4919729;28;127633;-69
2021/06/06 03:50:52;;;;;;;33.90;21.10;;;;;;;15.77;83.18;101015.59;4919904;28;97916;-67
2021/06/06 03:53:20;;;;;;;28.67;20.73;;;;;;;15.53;83.43;101021.81;4920520;28;98384;-67
2021/06/06 03:55:46;;;;;;;38.83;21.77;;;;;;;15.53;83.57;101021.00;4919437;28;98490;-69
2021/06/06 03:58:13;;;;;;;25.40;20.85;;;;;;;15.85;82.95;101020.41;4919197;28;127785;-67
2021/06/06 04:00:42;;;;;;;38.35;22.30;;;;;;;16.06;82.52;101013.63;4885476;28;107701;-67
2021/06/06 04:03:09;;;;;;;27.95;22.30;;;;;;;16.20;82.09;101011.00;4903377;28;97987;-67
2021/06/06 04:05:35;;;;;;;27.35;21.83;;;;;;;16.05;82.81;101017.44;4882601;28;116023;-69
2021/06/06 04:08:01;;;;;;;41.38;24.20;;;;;;;15.97;83.15;101011.84;4865931;28;113294;-69
2021/06/06 04:10:28;;;;;;;27.58;22.48;;;;;;;16.32;81.83;101010.59;4899867;28;98007;-69
2021/06/06 04:12:54;;;;;;;29.83;23.30;;;;;;;16.39;81.71;101011.84;4899419;28;104040;-68
2021/06/06 04:15:20;;;;;;;26.77;22.58;;;;;;;16.34;81.43;101009.19;4901095;28;98093;-69
2021/06/06 04:17:46;;;;;;;23.33;20.92;;;;;;;16.45;80.63;101010.66;4899792;28;110411;-69
2021/06/06 04:20:13;;;;;;;24.88;21.40;;;;;;;16.47;80.55;101012.28;4900493;28;118625;-69
2021/06/06 04:22:39;;;;;;;20.30;18.15;;;;;;;16.93;79.13;101012.44;4881731;28;98197;-69
2021/06/06 04:25:08;;;;;;;22.58;19.85;;;;;;;17.02;78.59;101016.13;4899412;28;114553;-68
2021/06/06 04:27:34;;;;;;;25.40;20.08;;;;;;;16.74;79.91;101017.91;4901074;28;98176;-69
2021/06/06 04:30:01;;;;;;;22.92;20.38;;;;;;;16.57;80.23;101017.56;4903700;28;98996;-69
2021/06/06 04:32:27;;;;;;;24.83;22.20;;;;;;;16.92;79.73;101016.28;4900419;28;98691;-67
2021/06/06 04:34:53;;;;;;;28.30;22.85;;;;;;;16.86;79.77;101022.91;4900014;28;98485;-69
2021/06/06 04:37:19;;;;;;;25.70;21.25;;;;;;;16.97;79.30;101026.25;4900445;28;127447;-69
2021/06/06 04:39:45;;;;;;;24.50;21.50;;;;;;;16.96;79.52;101020.00;4900802;28;97965;-67
2021/06/06 04:42:16;;;;;;;26.60;23.10;;;;;;;16.81;80.05;101023.78;4900586;28;98465;-67
2021/06/06 04:44:42;;;;;;;28.23;24.50;;;;;;;16.96;79.95;101022.75;4919581;28;98818;-69
2021/06/06 04:47:09;;;;;;;26.10;22.10;;;;;;;17.18;79.03;101014.75;4919055;28;99902;-67
2021/06/06 04:49:36;;;;;;;26.30;22.20;;;;;;;17.05;79.81;101023.66;4901622;28;97929;-67
2021/06/06 04:52:03;;;;;;;27.98;22.77;;;;;;;17.02;80.05;101024.28;4919085;28;114616;-68
2021/06/06 04:54:29;;;;;;;28.40;23.42;;;;;;;17.10;79.65;101020.88;4919656;28;111945;-68
2021/06/06 04:56:55;;;;;;;25.85;21.85;;;;;;;17.14;79.95;101024.63;4917654;28;121710;-69
2021/06/06 04:59:21;;;;;;;29.73;22.95;;;;;;;17.35;79.22;101029.72;4906774;28;97797;-68
2021/06/06 05:01:47;;;;;;;28.63;22.85;;;;;;;17.49;78.99;101030.56;4882113;28;98219;-68
2021/06/06 05:04:13;;;;;;;26.98;22.15;;;;;;;17.47;79.20;101027.31;4883220;28;128361;-68
2021/06/06 05:06:39;;;;;;;27.20;22.60;;;;;;;17.95;77.44;101029.72;4884717;28;127032;-69
2021/06/06 05:09:05;;;;;;;28.55;24.73;;;;;;;18.02;77.04;101029.31;4903512;28;97823;-68
2021/06/06 05:11:31;;;;;;;28.83;24.20;;;;;;;17.98;77.48;101037.31;4868985;28;109727;-68
2021/06/06 05:13:58;;;;;;;27.65;23.10;;;;;;;17.98;77.68;101026.41;4902272;28;114840;-69
2021/06/06 05:16:24;;;;;;;27.25;23.83;;;;;;;18.21;76.92;101031.94;4913559;28;98537;-69
2021/06/06 05:18:50;;;;;;;27.63;23.23;;;;;;;18.36;76.11;101029.69;4923643;28;98132;-68
2021/06/06 05:21:16;;;;;;;25.75;22.83;;;;;;;18.43;76.01;101039.38;4904788;28;97716;-69
2021/06/06 05:23:42;;;;;;;23.63;21.13;;;;;;;18.31;76.51;101035.28;4904120;28;104685;-68
2021/06/06 05:26:08;;;;;;;25.25;22.05;;;;;;;18.26;76.14;101037.28;4920573;28;98358;-69
2021/06/06 05:28:35;;;;;;;26.75;23.77;;;;;;;18.11;76.96;101038.41;4902143;28;121879;-69
2021/06/06 05:31:02;;;;;;;26.77;23.70;;;;;;;17.90;77.40;101040.75;4903406;28;98545;-68
2021/06/06 05:33:28;;;;;;;26.83;23.83;;;;;;;17.71;78.07;101031.81;4904052;28;98617;-68
2021/06/06 05:35:55;;;;;;;27.45;24.45;;;;;;;17.69;78.49;101040.28;4903230;28;98014;-68
2021/06/06 05:38:23;;;;;;;24.77;22.25;;;;;;;18.19;76.81;101034.16;4885150;28;98064;-68
2021/06/06 05:40:49;;;;;;;26.95;24.15;;;;;;;18.21;76.67;101038.22;4886020;28;112609;-68
2021/06/06 05:43:17;;;;;;;27.13;24.23;;;;;;;18.46;75.83;101039.56;4900413;28;112741;-68
2021/06/06 05:45:44;;;;;;;28.38;24.88;;;;;;;18.73;74.81;101043.38;4908398;28;98404;-68
2021/06/06 05:48:10;;;;;;;28.52;25.42;;;;;;;18.61;75.13;101044.69;4900071;28;105094;-68
2021/06/06 05:50:39;;;;;;;27.63;24.63;;;;;;;18.89;74.55;101050.91;4896578;28;128230;-68
2021/06/06 05:53:06;;;;;;;26.08;23.30;;;;;;;18.80;74.52;101052.78;4915012;28;98769;-68
2021/06/06 05:55:32;;;;;;;30.30;25.80;;;;;;;18.37;75.54;101060.53;4918156;28;98165;-69
2021/06/06 05:57:58;;;;;;;26.98;24.33;;;;;;;18.12;76.99;101059.94;4914851;28;98216;-67
2021/06/06 06:00:31;;;;;;;29.23;26.40;;;;;;;18.28;75.66;101065.91;4894767;28;100014;-69
2021/06/06 06:02:58;;;;;;;28.10;25.35;;;;;;;18.56;75.37;101063.13;4901394;28;98712;-69
2021/06/06 06:05:24;;;;;;;25.83;23.33;;;;;;;18.97;74.04;101063.03;4884791;28;98211;-68
2021/06/06 06:07:50;;;;;;;27.20;24.50;;;;;;;18.55;75.33;101064.22;4918798;28;97641;-70
2021/06/06 06:10:22;;;;;;;28.80;25.90;;;;;;;18.35;75.72;101063.56;4912899;28;98355;-69
2021/06/06 06:12:48;;;;;;;29.98;26.77;;;;;;;18.61;74.77;101066.53;4917849;28;98842;-69
2021/06/06 06:15:15;;;;;;;30.25;27.13;;;;;;;18.27;76.52;101066.97;4917120;28;126524;-68
2021/06/06 06:17:41;;;;;;;30.13;27.05;;;;;;;18.41;75.96;101064.25;4917552;28;99585;-68
2021/06/06 06:20:11;;;;;;;31.50;27.23;;;;;;;18.45;75.74;101069.91;4915696;28;98854;-68
2021/06/06 06:22:37;;;;;;;30.40;27.30;;;;;;;18.58;75.57;101067.16;4914449;28;110811;-69
2021/06/06 06:25:05;;;;;;;31.55;28.48;;;;;;;18.49;75.30;101070.91;4917186;28;128160;-69
2021/06/06 06:27:31;;;;;;;31.02;27.92;;;;;;;18.69;74.19;101070.47;4915033;28;99337;-69
2021/06/06 06:29:57;;;;;;;27.83;25.13;;;;;;;19.88;70.55;101066.50;4914108;28;98735;-69
2021/06/06 06:32:24;;;;;;;27.08;24.60;;;;;;;19.70;68.98;101069.16;4911264;28;110680;-69
2021/06/06 06:34:50;;;;;;;25.60;23.20;;;;;;;19.40;70.47;101065.25;4918357;28;98740;-69
2021/06/06 06:37:18;;;;;;;26.15;23.65;;;;;;;;;;4918324;28;108816;-67
2021/06/06 06:39:44;;;;;;;25.75;23.33;;;;;;;20.33;67.47;101073.44;4914522;28;98174;-69
2021/06/06 06:42:10;;;;;;;25.20;22.83;;;;;;;20.32;67.85;101074.56;4899846;28;99156;-68
2021/06/06 06:44:36;;;;;;;24.98;22.55;;;;;;;20.93;65.63;101062.91;4900053;28;118930;-69
2021/06/06 06:47:02;;;;;;;23.77;21.67;;;;;;;21.41;64.12;101062.69;4883659;28;121551;-70
2021/06/06 06:49:28;;;;;;;21.92;19.92;;;;;;;22.48;60.83;101058.88;4918838;28;98226;-68
2021/06/06 06:51:55;;;;;;;22.88;20.77;;;;;;;22.89;59.04;101061.97;4898798;28;98301;-68
2021/06/06 06:54:22;;;;;;;19.67;17.77;;;;;;;23.78;56.98;101062.41;4918747;28;97934;-68
2021/06/06 06:56:48;;;;;;;20.45;18.50;;;;;;;23.17;57.78;101059.47;4888784;28;102272;-70
2021/06/06 06:59:14;;;;;;;20.73;18.98;;;;;;;23.87;55.70;101051.31;4902823;28;107711;-70
2021/06/06 07:01:40;;;;;;;20.15;18.35;;;;;;;23.86;55.65;101063.47;4914581;28;113172;-70
2021/06/06 07:04:06;;;;;;;19.45;17.75;;;;;;;25.82;49.96;101051.84;4916285;28;127746;-70
2021/06/06 07:06:32;;;;;;;19.88;18.17;;;;;;;26.20;48.48;101059.47;4917563;28;111376;-70
2021/06/06 07:08:59;;;;;;;18.40;16.90;;;;;;;26.92;47.39;101059.91;4917936;28;98889;-68
2021/06/06 07:11:25;;;;;;;18.90;17.30;;;;;;;27.16;46.53;101064.38;4917578;28;98953;-68
2021/06/06 07:13:51;;;;;;;17.58;15.98;;;;;;;25.98;48.62;101068.41;4917676;28;110591;-68
2021/06/06 07:16:18;;;;;;;17.75;16.27;;;;;;;26.17;49.26;101049.97;4919251;28;97913;-69
2021/06/06 07:18:44;;;;;;;16.88;15.48;;;;;;;26.84;46.79;101057.34;4883656;28;98406;-70
2021/06/06 07:21:15;;;;;;;15.68;14.38;;;;;;;26.81;47.50;101052.56;4898938;28;99959;-70
2021/06/06 07:23:42;;;;;;;14.93;13.73;;;;;;;27.16;46.73;101053.31;4916462;28;117022;-69
2021/06/06 07:26:19;;;;;;;15.55;14.25;;;;;;;27.75;44.63;101045.69;4917471;28;98278;-69
2021/06/06 07:28:45;;;;;;;15.48;14.18;;;;;;;27.87;44.09;101050.22;4884840;28;98427;-70
2021/06/06 07:31:12;;;;;;;15.70;14.45;;;;;;;27.19;45.35;101054.50;4916653;28;99112;-71
2021/06/06 07:33:44;;;;;;;15.60;14.30;;;;;;;27.93;43.83;101051.50;4910740;28;127869;-69
2021/06/06 07:36:15;;;;;;;14.80;13.50;;;;;;;27.62;45.47;101052.53;4900792;28;98548;-71
2021/06/06 07:38:41;;;;;;;;;;;;;;;27.78;44.91;101060.72;4883740;28;98580;-71
2021/06/06 07:41:07;;;;;;;14.27;13.07;;;;;;;29.57;41.35;101050.06;4892495;28;98403;-69
2021/06/06 07:43:33;;;;;;;13.60;12.40;;;;;;;28.74;42.12;101056.66;4917228;28;97900;-69
2021/06/06 07:46:01;;;;;;;13.00;11.88;;;;;;;28.78;41.86;101049.16;4899720;28;98047;-71
2021/06/06 07:48:27;;;;;;;12.60;11.43;;;;;;;30.31;39.45;101043.50;4916626;28;118662;-71
2021/06/06 07:50:54;;;;;;;12.00;11.00;;;;;;;30.12;38.34;101052.09;4918147;28;98630;-71
2021/06/06 07:53:20;;;;;;;12.65;11.65;;;;;;;31.48;35.70;101051.50;4916382;28;127355;-70
2021/06/06 07:55:46;;;;;;;12.00;11.00;;;;;;;31.66;34.56;101040.38;4917076;28;97911;-70
2021/06/06 07:58:28;;;;;;;11.27;10.27;;;;;;;31.13;35.53;101051.44;4883142;28;98421;-70
2021/06/06 08:00:54;;;;;;;10.70;9.80;;;;;;;30.05;36.24;101045.28;4916859;28;99203;-72
2021/06/06 08:03:20;;;;;;;11.23;10.25;;;;;;;32.94;32.89;101032.94;4915989;28;120604;-72
2021/06/06 08:05:48;;;;;;;10.30;9.50;;;;;;;31.08;34.42;101033.09;4917568;28;98079;-72
2021/06/06 08:08:14;;;;;;;10.35;9.45;;;;;;;31.25;34.11;101026.78;4916845;28;99048;-73
2021/06/06 08:10:43;;;;;;;11.23;10.32;;;;;;;33.04;31.58;101023.69;4899816;28;99226;-71
2021/06/06 08:13:10;;;;;;;11.45;10.55;;;;;;;34.30;29.84;101024.25;4917607;28;98513;-71
2021/06/06 08:15:36;;;;;;;11.20;10.30;;;;;;;35.16;28.00;101023.19;4898390;28;98192;-73
2021/06/06 08:18:06;;;;;;;11.35;10.30;;;;;;;34.22;30.14;101021.97;4915791;28;128155;-70
2021/06/06 08:20:49;;;;;;;10.00;9.13;;;;;;;33.78;31.03;101018.78;4917252;28;98767;-73
2021/06/06 08:23:15;;;;;;;11.52;10.52;;;;;;;35.73;28.37;101016.69;4899323;28;98498;-71
2021/06/06 08:25:41;;;;;;;10.90;9.93;;;;;;;35.69;28.47;101015.97;4916577;28;97734;-73
2021/06/06 08:28:08;;;;;;;10.55;9.75;;;;;;;35.16;29.54;101018.38;4899194;28;99520;-71
2021/06/06 08:30:38;;;;;;;10.65;9.63;;;;;;;35.06;29.00;101012.97;4897611;28;105564;-73
2021/06/06 08:33:06;;;;;;;6.23;5.73;;;;;;;33.86;26.83;101009.13;4881658;28;100695;-73
2021/06/06 08:35:32;;;;;;;7.03;6.43;;;;;;;33.93;25.69;101006.25;4917168;28;98048;-71
2021/06/06 08:37:59;;;;;;;6.95;6.40;;;;;;;33.16;27.75;101009.25;4882075;28;98436;-70
2021/06/06 08:40:43;;;;;;;7.57;6.90;;;;;;;35.28;27.09;101002.97;4916695;28;100574;-74
2021/06/06 08:43:09;;;;;;;9.00;8.20;;;;;;;37.23;23.33;101010.03;4899780;28;98096;-71
2021/06/06 08:45:49;;;;;;;8.20;7.47;;;;;;;35.92;24.85;101008.72;4898002;28;123869;-73
2021/06/06 08:48:18;;;;;;;8.07;7.30;;;;;;;35.51;24.94;100993.84;4883202;28;99982;-71
2021/06/06 08:50:50;;;;;;;7.28;6.50;;;;;;;37.00;22.72;101005.38;4898489;28;99877;-71
2021/06/06 08:53:56;;;;;;;6.85;6.25;;;;;;;38.06;21.54;100996.28;4898887;28;98711;-71
2021/06/06 08:56:26;;;;;;;5.72;5.22;;;;;;;34.89;23.86;100992.34;4916465;28;97823;-71
2021/06/06 08:59:12;;;;;;;5.68;5.18;;;;;;;31.21;28.24;100992.59;4881219;28;98613;-71
2021/06/06 09:01:53;;;;;;;4.55;4.15;;;;;;;33.55;24.20;100982.28;4884992;28;98486;-71
2021/06/06 09:04:28;;;;;;;4.65;4.22;;;;;;;32.54;25.76;100989.66;4899704;28;97951;-74
2021/06/06 09:07:01;;;;;;;5.18;4.78;;;;;;;34.77;23.71;100981.72;4882666;28;112324;-72
2021/06/06 09:09:36;;;;;;;5.40;4.90;;;;;;;36.60;21.38;100986.56;4897642;28;98551;-76
2021/06/06 09:12:07;;;;;;;5.05;4.70;;;;;;;36.64;20.98;100986.50;4916402;28;99246;-71
2021/06/06 09:14:33;;;;;;;5.25;4.75;;;;;;;35.13;22.51;100991.22;4913872;28;98630;-74
2021/06/06 09:17:08;;;;;;;4.50;4.10;;;;;;;36.28;21.18;100981.63;4913263;28;121420;-75
2021/06/06 09:20:00;;;;;;;3.78;3.47;;;;;;;32.02;24.26;100981.84;4895999;28;98626;-70
2021/06/06 09:22:43;;;;;;;3.45;3.13;;;;;;;30.46;26.10;100984.00;4893433;28;98896;-74
2021/06/06 09:25:13;;;;;;;5.20;3.42;;;;;;;30.27;26.96;100971.19;4897635;28;98624;-75
2021/06/06 09:27:39;;;;;;;3.30;3.00;;;;;;;33.51;21.66;100967.53;4916317;28;97877;-71
2021/06/06 09:30:13;;;;;;;4.43;2.25;;;;;;;33.06;19.79;100975.84;4915211;28;98056;-71
2021/06/06 09:32:39;;;;;;;2.92;2.58;;;;;;;34.66;19.38;100971.50;4915685;28;99007;-71
2021/06/06 09:35:09;;;;;;;3.08;2.88;;;;;;;34.90;19.90;100980.75;4897724;28;97944;-74
2021/06/06 09:37:36;;;;;;;3.28;2.10;;;;;;;36.48;15.77;100972.41;4916186;28;98132;-74
2021/06/06 09:40:10;;;;;;;3.90;1.90;;;;;;;36.03;16.66;100979.28;4881875;28;98315;-70
2021/06/06 09:42:43;;;;;;;2.65;2.45;;;;;;;37.86;15.79;100983.56;4867231;28;98082;-76
2021/06/06 09:45:24;;;;;;;2.92;2.70;;;;;;;37.41;16.59;100984.34;4916687;28;97941;-71
2021/06/06 09:48:20;;;;;;;2.50;2.30;;;;;;;36.77;16.20;100976.16;4883572;28;98097;-71
2021/06/06 09:50:50;;;;;;;2.70;2.10;;;;;;;37.76;14.60;100988.22;4901625;28;99948;-71
2021/06/06 09:53:28;;;;;;;3.05;2.20;;;;;;;38.15;14.14;100973.13;4918479;28;113866;-74
2021/06/06 09:56:09;;;;;;;2.85;1.88;;;;;;;38.87;13.69;100960.56;4900882;28;97938;-75
2021/06/06 09:58:38;;;;;;;3.33;2.20;;;;;;;37.98;13.90;100961.13;4919257;28;110641;-72
2021/06/06 10:01:29;;;;;;;2.78;1.88;;;;;;;39.21;12.99;100959.03;4869314;28;100262;-73
2021/06/06 10:04:00;;;;;;;3.33;2.05;;;;;;;38.90;13.74;100962.44;4885485;28;99645;-71
2021/06/06 10:06:40;;;;;;;2.60;2.00;;;;;;;38.81;14.33;100947.47;4919196;28;98204;-74
2021/06/06 10:09:22;;;;;;;5.03;2.40;;;;;;;39.28;14.07;100956.00;4881867;28;98581;-72
2021/06/06 10:12:12;;;;;;;2.45;2.25;;;;;;;37.83;14.56;100955.09;4896559;28;99207;-71
2021/06/06 10:14:59;;;;;;;4.05;2.67;;;;;;;37.14;14.83;100948.88;4885501;28;98622;-74
2021/06/06 10:17:49;;;;;;;2.70;2.50;;;;;;;39.52;13.40;100939.47;4901088;28;98874;-74
2021/06/06 10:20:25;;;;;;;2.72;2.53;;;;;;;38.73;14.50;100944.84;4900660;28;108902;-74
2021/06/06 10:22:55;;;;;;;2.95;2.70;;;;;;;36.68;16.58;100947.13;4885089;28;99238;-74
2021/06/06 10:25:58;;;;;;;3.58;3.28;;;;;;;39.26;15.35;100935.94;4900608;28;99303;-75
2021/06/06 10:28:34;;;;;;;3.33;3.10;;;;;;;39.79;14.19;100949.44;4913329;28;115910;-72
2021/06/06 10:31:08;;;;;;;4.60;3.35;;;;;;;39.26;15.24;100950.84;4881206;28;98280;-75
2021/06/06 10:33:55;;;;;;;3.25;2.95;;;;;;;39.31;15.82;100943.06;4915523;28;98184;-72
2021/06/06 10:36:24;;;;;;;3.50;3.20;;;;;;;39.58;14.87;100943.31;4879477;28;98768;-75
2021/06/06 10:38:50;;;;;;;3.50;3.30;;;;;;;38.04;16.57;100941.69;4900089;28;98570;-75
2021/06/06 10:41:22;;;;;;;3.50;3.10;;;;;;;39.34;14.60;100948.56;4909802;28;98346;-71
2021/06/06 10:44:33;;;;;;;4.13;3.35;;;;;;;39.32;14.97;100945.41;4893337;28;99612;-71
2021/06/06 10:47:11;;;;;;;3.60;2.80;;;;;;;37.24;15.74;100947.00;4892912;28;98927;-75
2021/06/06 10:49:57;;;;;;;3.17;2.60;;;;;;;35.07;16.46;100945.31;4884161;28;117662;-74
2021/06/06 10:52:35;;;;;;;2.72;2.53;;;;;;;38.26;14.92;100942.66;4917822;28;98239;-74
2021/06/06 10:55:29;;;;;;;3.15;2.67;;;;;;;37.09;15.11;100936.13;4900285;28;98591;-74
2021/06/06 10:57:56;;;;;;;3.47;2.47;;;;;;;36.37;16.49;100941.75;4896826;28;98832;-71
2021/06/06 11:00:35;;;;;;;3.03;2.65;;;;;;;36.04;17.15;100930.41;4883181;28;98045;-71
2021/06/06 11:03:12;;;;;;;2.88;2.65;;;;;;;37.18;16.04;100932.72;4899648;28;98054;-71
2021/06/06 11:05:57;;;;;;;3.10;2.83;;;;;;;36.42;16.51;100930.00;4913533;28;99677;-71
2021/06/06 11:08:30;;;;;;;2.90;2.60;;;;;;;36.97;16.53;100930.41;4914931;28;99154;-71
2021/06/06 11:11:23;;;;;;;3.25;2.70;;;;;;;37.31;16.38;100936.38;4916375;28;98290;-72
2021/06/06 11:14:14;;;;;;;2.88;2.55;;;;;;;36.36;16.14;100937.38;4916763;28;97981;-76
2021/06/06 11:16:52;;;;;;;2.83;2.50;;;;;;;36.76;16.32;100929.66;4899690;28;98046;-74
2021/06/06 11:19:28;;;;;;;4.03;2.67;;;;;;;33.89;19.02;100929.25;4884099;28;99274;-71
2021/06/06 11:22:31;;;;;;;3.33;3.00;;;;;;;32.43;21.02;100926.38;4915070;28;98402;-72
2021/06/06 11:24:58;;;;;;;2.80;2.60;;;;;;;32.54;20.41;100919.91;4898514;28;97982;-74
2021/06/06 11:27:31;;;;;;;3.22;2.80;;;;;;;32.50;21.06;100917.16;4914275;28;99334;-75
2021/06/06 11:30:22;;;;;;;3.10;2.78;;;;;;;34.14;20.01;100912.97;4884165;28;98966;-71
2021/06/06 11:33:00;;;;;;;3.20;2.90;;;;;;;34.14;18.69;100918.56;4915595;28;98206;-75
2021/06/06 11:35:35;;;;;;;2.78;2.58;;;;;;;33.80;19.23;100912.97;4898648;28;98094;-75
2021/06/06 11:38:50;;;;;;;3.20;2.90;;;;;;;32.82;21.10;100911.41;4917175;28;99234;-76